createdAt,value
2022-11-02T00:00:17.204Z,61.00
2022-11-02T00:02:45.282Z,57.73
2022-11-02T00:05:14.227Z,60.10
2022-11-02T00:07:43.641Z,60.67
2022-11-02T00:10:12.060Z,60.87
2022-11-02T00:12:39.945Z,63.80
2022-11-02T00:15:09.344Z,65.23
2022-11-02T00:17:37.592Z,56.97
2022-11-02T00:20:06.869Z,58.30
2022-11-02T00:22:35.414Z,61.83
2022-11-02T00:25:07.616Z,59.83
2022-11-02T00:27:36.371Z,57.63
2022-11-02T00:30:04.422Z,57.27
2022-11-02T00:32:32.408Z,54.37
2022-11-02T00:35:00.299Z,56.43
2022-11-02T00:37:28.357Z,55.83
2022-11-02T00:39:56.281Z,62.10
2022-11-02T00:42:25.544Z,60.47
2022-11-02T00:44:53.424Z,57.37
2022-11-02T00:47:21.449Z,56.97
2022-11-02T00:49:49.371Z,57.30
2022-11-02T00:52:17.256Z,61.00
2022-11-02T00:54:45.148Z,55.90
2022-11-02T00:57:13.052Z,55.77
2022-11-02T00:59:42.308Z,54.23
2022-11-02T01:02:10.424Z,53.57
2022-11-02T01:04:38.717Z,51.33
2022-11-02T01:07:06.633Z,54.10
2022-11-02T01:09:35.044Z,57.40
2022-11-02T01:12:02.971Z,51.97
2022-11-02T01:14:31.047Z,55.40
2022-11-02T01:17:00.314Z,60.37
2022-11-02T01:19:28.418Z,54.37
2022-11-02T01:21:56.308Z,53.47
2022-11-02T01:24:24.371Z,50.90
2022-11-02T01:26:53.059Z,50.90
2022-11-02T01:29:20.973Z,47.20
2022-11-02T01:31:49.435Z,50.07
2022-11-02T01:34:18.807Z,48.27
2022-11-02T01:36:48.034Z,45.20
2022-11-02T01:39:16.587Z,47.77
2022-11-02T01:41:44.507Z,51.37
2022-11-02T01:44:31.482Z,48.00
2022-11-02T01:47:03.764Z,48.40
2022-11-02T01:49:36.718Z,47.57
2022-11-02T01:52:08.376Z,52.07
2022-11-02T01:54:41.014Z,49.27
2022-11-02T01:57:13.591Z,46.17
2022-11-02T01:59:49.126Z,46.13
2022-11-02T02:02:20.843Z,45.97
2022-11-02T02:04:54.787Z,45.80
2022-11-02T02:07:25.217Z,46.17
2022-11-02T02:09:53.794Z,50.20
2022-11-02T02:12:22.301Z,53.60
2022-11-02T02:14:50.425Z,46.27
2022-11-02T02:17:30.582Z,40.07
2022-11-02T02:20:06.273Z,41.77
2022-11-02T02:22:51.014Z,45.87
2022-11-02T02:25:48.732Z,37.17
2022-11-02T02:28:21.878Z,35.97
2022-11-02T02:30:55.381Z,45.47
2022-11-02T02:33:30.672Z,40.47
2022-11-02T02:36:04.014Z,40.57
2022-11-02T02:38:35.814Z,43.73
2022-11-02T02:41:13.509Z,37.63
2022-11-02T02:43:45.311Z,51.17
2022-11-02T02:46:21.354Z,43.37
2022-11-02T02:48:50.178Z,43.80
2022-11-02T02:51:23.613Z,50.80
2022-11-02T02:53:58.259Z,47.83
2022-11-02T02:56:27.902Z,50.83
2022-11-02T02:59:02.349Z,43.77
2022-11-02T03:01:30.785Z,55.33
2022-11-02T03:03:58.773Z,47.93
2022-11-02T03:06:30.717Z,47.70
2022-11-02T03:09:08.692Z,50.20
2022-11-02T03:11:41.886Z,48.13
2022-11-02T03:14:22.457Z,44.43
2022-11-02T03:17:06.910Z,48.73
2022-11-02T03:19:42.423Z,47.23
2022-11-02T03:22:18.853Z,47.63
2022-11-02T03:24:55.984Z,50.50
2022-11-02T03:27:30.517Z,59.27
2022-11-02T03:30:06.281Z,53.00
2022-11-02T03:32:39.537Z,53.77
2022-11-02T03:35:13.673Z,49.53
2022-11-02T03:37:47.300Z,57.57
2022-11-02T03:40:20.021Z,54.83
2022-11-02T03:42:49.938Z,49.67
2022-11-02T03:45:22.148Z,62.67
2022-11-02T03:47:52.912Z,55.90
2022-11-02T03:50:24.057Z,72.33
2022-11-02T03:52:57.320Z,71.43
2022-11-02T03:55:30.389Z,65.17
2022-11-02T03:57:59.124Z,67.63
2022-11-02T04:00:31.944Z,70.23
2022-11-02T04:03:04.055Z,70.80
2022-11-02T04:05:33.890Z,70.93
2022-11-02T04:08:19.864Z,71.90
2022-11-02T04:11:05.824Z,68.60
2022-11-02T04:13:51.449Z,71.37
2022-11-02T04:16:27.711Z,71.73
2022-11-02T04:19:13.595Z,63.73
2022-11-02T04:22:01.569Z,64.27
2022-11-02T04:24:46.886Z,64.83
2022-11-02T04:27:19.642Z,61.13
2022-11-02T04:29:48.679Z,75.13
2022-11-02T04:32:38.790Z,74.47
2022-11-02T04:35:07.138Z,67.70
2022-11-02T04:37:57.184Z,62.17
2022-11-02T04:40:25.348Z,49.23
2022-11-02T04:42:53.263Z,43.90
2022-11-02T04:45:21.231Z,49.63
2022-11-02T04:47:50.479Z,47.73
2022-11-02T04:50:18.507Z,40.47
2022-11-02T04:52:46.427Z,44.03
2022-11-02T04:55:14.320Z,47.47
2022-11-02T04:57:46.357Z,44.03
2022-11-02T05:00:15.581Z,43.50
2022-11-02T05:02:43.681Z,34.80
2022-11-02T05:05:13.033Z,36.13
2022-11-02T05:07:41.211Z,33.97
2022-11-02T05:10:09.483Z,40.20
2022-11-02T05:12:37.444Z,40.13
2022-11-02T05:15:05.924Z,45.07
2022-11-02T05:17:33.941Z,39.80
2022-11-02T05:20:01.812Z,33.87
2022-11-02T05:22:32.139Z,35.40
2022-11-02T05:25:00.155Z,36.33
2022-11-02T05:27:28.051Z,36.67
2022-11-02T05:29:55.947Z,38.37
2022-11-02T05:32:23.831Z,39.13
2022-11-02T05:34:51.776Z,34.10
2022-11-02T05:37:19.767Z,31.17
2022-11-02T05:39:50.490Z,29.00
2022-11-02T05:42:18.847Z,34.60
2022-11-02T05:44:46.764Z,29.67
2022-11-02T05:47:14.663Z,34.77
2022-11-02T05:49:42.559Z,36.70
2022-11-02T05:52:10.446Z,35.40
2022-11-02T05:54:38.356Z,32.87
2022-11-02T05:57:07.628Z,33.83
2022-11-02T05:59:35.509Z,31.00
2022-11-02T06:02:03.521Z,40.13
2022-11-02T06:04:31.553Z,29.30
2022-11-02T06:06:59.445Z,27.63
2022-11-02T06:09:27.686Z,37.33
2022-11-02T06:11:57.240Z,31.37
2022-11-02T06:14:26.660Z,26.00
2022-11-02T06:16:54.518Z,31.27
2022-11-02T06:19:22.408Z,35.73
2022-11-02T06:21:50.285Z,33.00
2022-11-02T06:24:18.190Z,32.13
2022-11-02T06:26:47.174Z,27.73
2022-11-02T06:29:15.101Z,31.10
2022-11-02T06:31:44.371Z,33.37
2022-11-02T06:34:12.261Z,35.37
2022-11-02T06:36:40.186Z,27.20
2022-11-02T06:39:08.089Z,34.90
2022-11-02T06:41:35.986Z,30.33
2022-11-02T06:44:03.964Z,27.13
2022-11-02T06:46:32.352Z,25.67
2022-11-02T06:49:01.787Z,30.67
2022-11-02T06:51:29.664Z,26.93
2022-11-02T06:53:57.613Z,28.87
2022-11-02T06:56:25.514Z,23.83
2022-11-02T06:58:53.413Z,25.70
2022-11-02T07:01:21.403Z,24.63
2022-11-02T07:03:49.376Z,25.17
2022-11-02T07:06:18.636Z,26.07
2022-11-02T07:08:46.506Z,28.60
2022-11-02T07:11:16.249Z,29.23
2022-11-02T07:13:44.549Z,32.30
2022-11-02T07:16:12.703Z,29.67
2022-11-02T07:18:41.079Z,33.53
2022-11-02T07:21:11.420Z,33.80
2022-11-02T07:23:40.809Z,30.40
2022-11-02T07:26:08.682Z,33.90
2022-11-02T07:28:38.288Z,29.63
2022-11-02T07:31:06.580Z,24.50
2022-11-02T07:33:34.438Z,27.00
2022-11-02T07:36:05.383Z,27.77
2022-11-02T07:38:33.324Z,27.03
2022-11-02T07:41:02.577Z,27.47
2022-11-02T07:43:30.613Z,24.50
2022-11-02T07:45:58.513Z,23.53
2022-11-02T07:48:28.076Z,25.27
2022-11-02T07:50:58.552Z,32.27
2022-11-02T07:53:26.504Z,21.80
2022-11-02T07:55:54.418Z,33.40
2022-11-02T07:58:23.653Z,38.40
2022-11-02T08:00:55.854Z,34.87
2022-11-02T08:03:27.470Z,32.10
2022-11-02T08:05:55.890Z,26.37
2022-11-02T08:08:25.364Z,18.17
2022-11-02T08:10:54.081Z,23.90
2022-11-02T08:13:26.083Z,21.60
2022-11-02T08:15:55.073Z,29.73
2022-11-02T08:18:24.884Z,21.70
2022-11-02T08:20:55.773Z,25.03
2022-11-02T08:23:24.866Z,26.27
2022-11-02T08:25:54.329Z,28.33
2022-11-02T08:28:26.025Z,27.13
2022-11-02T08:30:54.194Z,22.03
2022-11-02T08:33:22.463Z,25.63
2022-11-02T08:35:50.586Z,28.70
2022-11-02T08:38:22.385Z,18.80
2022-11-02T08:40:50.670Z,19.83
2022-11-02T08:43:18.570Z,20.33
2022-11-02T08:46:13.962Z,19.37
2022-11-02T08:48:35.744Z,16.87
2022-11-02T08:51:05.598Z,14.93
2022-11-02T08:53:33.544Z,15.43
2022-11-02T08:56:01.436Z,21.53
2022-11-02T08:58:29.395Z,20.47
2022-11-02T09:00:58.681Z,18.17
2022-11-02T09:03:28.228Z,15.67
2022-11-02T09:06:00.519Z,16.20
2022-11-02T09:08:28.940Z,20.00
2022-11-02T09:11:01.167Z,17.53
2022-11-02T09:13:29.414Z,20.90
2022-11-02T09:16:00.322Z,17.97
2022-11-02T09:18:28.342Z,23.33
2022-11-02T09:20:56.282Z,17.90
2022-11-02T09:23:24.618Z,16.33
2022-11-02T09:25:52.727Z,20.23
2022-11-02T09:28:20.842Z,20.20
2022-11-02T09:30:48.749Z,18.23
2022-11-02T09:33:18.060Z,18.97
2022-11-02T09:35:48.227Z,16.83
2022-11-02T09:38:18.376Z,15.40
2022-11-02T09:40:52.332Z,16.17
2022-11-02T09:43:32.200Z,22.67
2022-11-02T09:46:05.125Z,17.90
2022-11-02T09:48:36.748Z,17.13
2022-11-02T09:51:09.140Z,18.03
2022-11-02T09:53:47.840Z,17.63
2022-11-02T09:56:19.835Z,19.60
2022-11-02T09:58:52.757Z,19.27
2022-11-02T10:01:45.901Z,19.20
2022-11-02T10:04:50.294Z,21.73
2022-11-02T10:07:29.811Z,20.57
2022-11-02T10:10:00.740Z,21.10
2022-11-02T10:12:37.825Z,24.27
2022-11-02T10:15:11.272Z,22.27
2022-11-02T10:17:42.341Z,18.27
2022-11-02T10:20:23.432Z,19.60
2022-11-02T10:22:51.436Z,23.03
2022-11-02T10:25:19.534Z,18.57
2022-11-02T10:27:52.725Z,21.23
2022-11-02T10:30:22.201Z,16.07
2022-11-02T10:32:54.288Z,14.37
2022-11-02T10:35:41.152Z,15.00
2022-11-02T10:38:29.608Z,14.20
2022-11-02T10:41:12.679Z,14.70
2022-11-02T10:43:56.699Z,14.17
2022-11-02T10:46:35.813Z,14.13
2022-11-02T10:49:11.350Z,13.03
2022-11-02T10:51:40.793Z,11.57
2022-11-02T10:54:16.146Z,10.70
2022-11-02T10:56:47.610Z,9.37
2022-11-02T10:59:17.102Z,8.30
2022-11-02T11:02:04.240Z,8.43
2022-11-02T11:04:33.347Z,8.83
2022-11-02T11:07:07.174Z,8.67
2022-11-02T11:09:42.877Z,10.43
2022-11-02T11:12:21.076Z,7.73
2022-11-02T11:20:34.613Z,8.00
2022-11-02T11:23:18.997Z,9.03
2022-11-02T11:25:56.601Z,9.27
2022-11-02T11:28:27.028Z,9.07
2022-11-02T11:31:06.186Z,8.80
2022-11-02T11:33:42.422Z,7.70
2022-11-02T11:36:11.833Z,9.23
2022-11-02T11:38:49.213Z,7.67
2022-11-02T11:41:17.483Z,9.90
2022-11-02T11:43:48.054Z,5.83
2022-11-02T11:46:18.295Z,5.63
2022-11-02T11:48:50.054Z,7.10
2022-11-02T11:51:39.475Z,8.13
2022-11-02T11:54:25.587Z,8.87
2022-11-02T11:56:55.694Z,7.77
2022-11-02T11:59:29.586Z,8.27
2022-11-02T12:01:59.409Z,7.70
2022-11-02T12:04:35.628Z,7.83
2022-11-02T12:07:43.133Z,6.80
2022-11-02T12:10:17.961Z,7.40
2022-11-02T12:12:58.987Z,6.73
2022-11-02T12:15:51.406Z,8.57
2022-11-02T12:18:32.739Z,5.93
2022-11-02T12:21:15.856Z,8.90
2022-11-02T12:24:08.579Z,11.43
2022-11-02T12:26:50.236Z,8.23
2022-11-02T12:29:37.320Z,7.67
2022-11-02T12:32:15.361Z,6.37
2022-11-02T12:35:27.156Z,5.70
2022-11-02T12:38:06.953Z,6.43
2022-11-02T12:40:46.297Z,6.40
2022-11-02T12:43:33.134Z,8.23
2022-11-02T12:46:06.538Z,7.00
2022-11-02T12:48:43.473Z,4.93
2022-11-02T12:51:15.708Z,6.93
2022-11-02T12:53:50.014Z,6.60
2022-11-02T12:56:23.045Z,8.70
2022-11-02T12:58:52.945Z,5.07
2022-11-02T13:01:27.450Z,8.30
2022-11-02T13:04:00.045Z,6.13
2022-11-02T13:06:32.713Z,4.33
2022-11-02T13:09:06.355Z,5.37
2022-11-02T13:11:39.205Z,7.90
2022-11-02T13:14:15.528Z,9.27
2022-11-02T13:16:50.239Z,5.97
2022-11-02T13:19:22.205Z,6.30
2022-11-02T13:21:55.083Z,7.60
2022-11-02T13:24:31.714Z,4.77
2022-11-02T13:27:14.326Z,7.10
2022-11-02T13:29:50.789Z,5.53
2022-11-02T13:32:28.341Z,5.40
2022-11-02T13:35:00.039Z,6.43
2022-11-02T13:37:31.282Z,6.80
2022-11-02T13:40:02.449Z,5.33
2022-11-02T13:42:47.577Z,7.27
2022-11-02T13:45:42.753Z,5.30
2022-11-02T13:48:40.039Z,7.00
2022-11-02T13:51:17.157Z,7.13
2022-11-02T13:53:54.121Z,7.73
2022-11-02T13:56:28.347Z,7.00
2022-11-02T13:59:00.747Z,5.87
2022-11-02T14:01:34.003Z,5.60
2022-11-02T14:04:06.740Z,5.90
2022-11-02T14:06:45.736Z,7.93
2022-11-02T14:09:27.055Z,8.87
2022-11-02T14:12:13.112Z,8.93
2022-11-02T14:14:41.269Z,6.50
2022-11-02T14:17:15.123Z,5.13
2022-11-02T14:20:04.285Z,4.07
2022-11-02T14:22:33.065Z,7.47
2022-11-02T14:25:18.865Z,6.87
2022-11-02T14:27:47.064Z,5.10
2022-11-02T14:30:45.483Z,13.60
2022-11-02T14:33:37.931Z,8.90
2022-11-02T14:36:10.841Z,5.60
2022-11-02T14:38:53.466Z,6.03
2022-11-02T14:41:42.807Z,7.93
2022-11-02T14:44:42.401Z,6.90
2022-11-02T14:47:13.368Z,7.77
2022-11-02T14:49:50.008Z,10.90
2022-11-02T14:52:29.602Z,10.70
2022-11-02T14:55:03.933Z,6.37
2022-11-02T14:57:36.133Z,5.80
2022-11-02T15:00:17.876Z,7.53
2022-11-02T15:02:46.678Z,5.27
2022-11-02T15:05:27.325Z,6.37
2022-11-02T15:07:59.811Z,4.97
2022-11-02T15:10:43.375Z,9.10
2022-11-02T15:13:33.928Z,7.53
2022-11-02T15:16:23.466Z,7.60
2022-11-02T15:18:51.643Z,14.07
2022-11-02T15:21:28.512Z,18.80
2022-11-02T15:24:17.086Z,11.90
2022-11-02T15:26:49.855Z,9.40
2022-11-02T15:29:36.470Z,6.00
2022-11-02T15:32:07.083Z,7.60
2022-11-02T15:34:37.975Z,6.53
2022-11-02T15:37:08.260Z,6.97
2022-11-02T15:39:36.912Z,10.27
2022-11-02T15:42:08.633Z,11.43
2022-11-02T15:45:27.097Z,9.60
2022-11-02T15:48:17.346Z,6.57
2022-11-02T15:50:53.129Z,11.13
2022-11-02T15:53:36.719Z,8.47
2022-11-02T15:56:44.751Z,8.93
2022-11-02T15:59:48.590Z,10.53
2022-11-02T16:02:23.742Z,9.50
2022-11-02T16:04:54.264Z,9.57
2022-11-02T16:07:29.134Z,7.37
2022-11-02T16:10:23.073Z,5.93
2022-11-02T16:12:58.085Z,11.47
2022-11-02T16:15:26.353Z,6.97
2022-11-02T16:17:54.982Z,8.93
2022-11-02T16:20:26.433Z,9.60
2022-11-02T16:22:56.693Z,8.93
2022-11-02T16:25:39.724Z,7.67
2022-11-02T16:28:20.331Z,13.43
2022-11-02T16:31:17.229Z,7.87
2022-11-02T16:33:49.557Z,11.63
2022-11-02T16:36:19.633Z,7.70
2022-11-02T16:38:50.093Z,7.23
2022-11-02T16:41:19.825Z,8.30
2022-11-02T16:43:49.834Z,8.73
2022-11-02T16:46:18.821Z,70.53
2022-11-02T16:49:15.333Z,94.70
2022-11-02T16:51:50.889Z,13.27
2022-11-02T16:54:39.848Z,11.10
2022-11-02T16:57:16.356Z,10.33
2022-11-02T16:59:52.201Z,12.63
2022-11-02T17:02:24.311Z,14.37
2022-11-02T17:04:59.244Z,18.73
2022-11-02T17:07:33.147Z,19.90
2022-11-02T17:10:03.212Z,15.10
2022-11-02T17:12:35.872Z,10.67
2022-11-02T17:15:12.229Z,11.27
2022-11-02T17:17:41.245Z,12.57
2022-11-02T17:20:21.089Z,11.07
2022-11-02T17:22:58.731Z,10.17
2022-11-02T17:25:28.762Z,11.83
2022-11-02T17:27:59.483Z,9.97
2022-11-02T17:30:43.664Z,9.57
2022-11-02T17:33:19.614Z,9.00
2022-11-02T17:35:48.850Z,8.20
2022-11-02T17:38:17.449Z,8.00
2022-11-02T17:40:45.358Z,11.07
2022-11-02T17:43:13.628Z,7.20
2022-11-02T17:45:41.775Z,12.13
2022-11-02T17:48:11.310Z,10.50
2022-11-02T17:50:41.311Z,12.80
2022-11-02T17:53:13.904Z,11.13
2022-11-02T17:55:41.848Z,9.47
2022-11-02T17:58:10.829Z,16.43
2022-11-02T18:00:40.272Z,8.93
2022-11-02T18:03:15.325Z,9.57
2022-11-02T18:05:46.633Z,12.30
2022-11-02T18:08:18.057Z,12.53
2022-11-02T18:10:47.994Z,10.60
2022-11-02T18:13:18.183Z,11.83
2022-11-02T18:15:48.351Z,10.77
2022-11-02T18:18:16.519Z,8.80
2022-11-02T18:20:44.719Z,9.80
2022-11-02T18:23:16.965Z,13.87
2022-11-02T18:25:45.423Z,13.87
2022-11-02T18:28:13.931Z,12.23
2022-11-02T18:30:44.145Z,11.50
2022-11-02T18:33:14.383Z,10.73
2022-11-02T18:35:44.160Z,13.00
2022-11-02T18:38:12.714Z,19.03
2022-11-02T18:40:40.595Z,22.93
2022-11-02T18:43:09.034Z,29.33
2022-11-02T18:45:37.338Z,47.97
2022-11-02T18:48:05.646Z,60.37
2022-11-02T18:50:34.961Z,47.90
2022-11-02T18:53:02.867Z,56.83
2022-11-02T18:55:30.757Z,44.93
2022-11-02T18:57:58.758Z,60.40
2022-11-02T19:00:26.634Z,53.60
2022-11-02T19:02:54.547Z,43.40
2022-11-02T19:05:40.156Z,45.57
2022-11-02T19:08:27.998Z,45.63
2022-11-02T19:10:55.990Z,38.47
2022-11-02T19:13:23.973Z,42.90
2022-11-02T19:15:51.877Z,37.93
2022-11-02T19:18:19.763Z,30.53
2022-11-02T19:20:47.629Z,33.57
2022-11-02T19:23:16.855Z,32.00
2022-11-02T19:25:51.275Z,21.30
2022-11-02T19:28:19.217Z,24.70
2022-11-02T19:30:47.134Z,13.87
2022-11-02T19:33:15.049Z,28.83
2022-11-02T19:35:42.934Z,12.97
2022-11-02T19:38:10.837Z,17.17
2022-11-02T19:40:40.105Z,20.40
2022-11-02T19:43:08.346Z,15.17
2022-11-02T19:45:36.477Z,17.33
2022-11-02T19:48:04.888Z,17.97
2022-11-02T19:50:33.260Z,25.33
2022-11-02T19:53:01.291Z,31.17
2022-11-02T19:55:29.753Z,21.57
2022-11-02T19:57:59.012Z,16.07
2022-11-02T20:00:26.882Z,16.07
2022-11-02T20:02:54.832Z,18.80
2022-11-02T20:05:22.832Z,16.30
2022-11-02T20:07:52.354Z,11.57
2022-11-02T20:10:20.262Z,13.07
2022-11-02T20:12:48.158Z,11.97
2022-11-02T20:15:17.490Z,16.77
2022-11-02T20:18:05.319Z,11.27
2022-11-02T20:20:33.590Z,8.80
2022-11-02T20:23:02.446Z,8.50
2022-11-02T20:25:30.399Z,5.67
2022-11-02T20:27:58.273Z,8.17
2022-11-02T20:30:27.491Z,8.27
2022-11-02T20:32:55.458Z,10.87
2022-11-02T20:35:25.880Z,8.03
2022-11-02T20:37:55.114Z,10.53
2022-11-02T20:40:23.836Z,9.23
2022-11-02T20:42:51.778Z,7.63
2022-11-02T20:45:19.671Z,10.23
2022-11-02T20:47:48.961Z,7.30
2022-11-02T20:50:19.417Z,9.07
2022-11-02T20:52:49.719Z,6.40
2022-11-02T20:55:17.759Z,10.63
2022-11-02T20:57:48.832Z,7.10
2022-11-02T21:00:18.681Z,8.83
2022-11-02T21:02:48.379Z,6.03
2022-11-02T21:05:16.455Z,5.40
2022-11-02T21:07:44.584Z,4.03
2022-11-02T21:10:12.490Z,6.93
2022-11-02T21:12:57.675Z,6.47
2022-11-02T21:15:25.604Z,6.93
2022-11-02T21:17:54.858Z,7.03
2022-11-02T21:20:39.220Z,7.17
2022-11-02T21:23:07.692Z,5.80
2022-11-02T21:25:36.541Z,6.43
2022-11-02T21:28:04.752Z,9.93
2022-11-02T21:30:32.735Z,5.77
2022-11-02T21:33:02.044Z,6.97
2022-11-02T21:35:29.959Z,6.30
2022-11-02T21:38:01.240Z,5.67
2022-11-02T21:40:31.818Z,6.77
2022-11-02T21:42:59.813Z,11.53
2022-11-02T21:45:27.714Z,8.17
2022-11-02T21:47:55.605Z,6.83
2022-11-02T21:50:24.870Z,8.07
2022-11-02T21:52:52.764Z,7.33
2022-11-02T21:55:20.683Z,7.47
2022-11-02T21:57:48.616Z,9.07
2022-11-02T22:00:17.197Z,6.37
2022-11-02T22:02:44.181Z,3.87
2022-11-02T22:05:32.142Z,3.73
2022-11-02T22:08:19.008Z,9.03
2022-11-02T22:10:47.050Z,6.40
2022-11-02T22:13:32.290Z,8.67
2022-11-02T22:16:08.101Z,7.20
2022-11-02T22:18:36.007Z,7.13
2022-11-02T22:21:03.980Z,6.77
2022-11-02T22:23:33.284Z,9.73
2022-11-02T22:26:02.593Z,11.37
2022-11-02T22:28:31.536Z,6.83
2022-11-02T22:30:59.617Z,5.03
2022-11-02T22:33:27.771Z,7.57
2022-11-02T22:35:55.701Z,7.23
2022-11-02T22:38:40.950Z,8.07
2022-11-02T22:41:10.243Z,10.40
2022-11-02T22:43:38.143Z,7.87
2022-11-02T22:46:07.960Z,9.50
2022-11-02T22:48:36.595Z,4.90
2022-11-02T22:51:06.141Z,6.93
2022-11-02T22:53:34.367Z,7.03
2022-11-02T22:56:03.668Z,7.73
2022-11-02T22:58:33.911Z,5.37
2022-11-02T23:01:01.837Z,4.27
2022-11-02T23:03:32.655Z,9.60
2022-11-02T23:06:00.948Z,7.03
2022-11-02T23:08:29.253Z,3.10
2022-11-02T23:11:15.844Z,4.33
2022-11-02T23:13:46.271Z,7.90
2022-11-02T23:16:24.313Z,5.63
2022-11-02T23:19:17.840Z,8.23
2022-11-02T23:21:50.020Z,5.80
2022-11-02T23:24:36.117Z,4.87
2022-11-02T23:27:04.799Z,5.90
2022-11-02T23:29:51.361Z,5.93
2022-11-02T23:32:29.354Z,5.63
2022-11-02T23:35:16.252Z,5.27
2022-11-02T23:37:45.556Z,5.40
2022-11-02T23:40:15.708Z,5.90
2022-11-02T23:42:44.584Z,3.60
2022-11-02T23:45:13.827Z,2.60
2022-11-02T23:48:01.708Z,3.93
2022-11-02T23:50:49.783Z,3.87
2022-11-02T23:53:36.789Z,5.10
2022-11-02T23:56:23.851Z,4.80
2022-11-02T23:59:06.506Z,7.87
